• Join FlightAware (Why Join?)
  • Login
  • US Flag 
07:02PM EST


 

Airport Tracker/Info


-or-


 

Live Flight TrackerFlight Track Log ✈ RPA3314 ✈ 30-Jul-2013 ✈ KPHL - KBTV

Flight Track Log - Related Links

Times and Time Zones

All times are in EDT time to prevent confusion due to time zone crossing. See the RPA3314 flight status page for this flight to view local times or setup timezone preferences in your user account.

Time Position Orientation Groundspeed Altitude Reporting Facility
EDT Latitude Longitude Course Direction KTS MPH feet Rate Location/Type
09:34PM 39.8667 -75.2667 218° Southwest 154 177 800  Level Philadelphia TRACON
09:35PM 39.8167 -75.3167 218° Southwest 203 234 3,400 2,220 Climbing Philadelphia TRACON
09:36PM 39.7667 -75.3333 194° South 266 306 5,800 2,700 Climbing Philadelphia TRACON
09:37PM 39.7500 -75.2333 102° East 283 326 8,900 2,460 Climbing Philadelphia TRACON
09:38PM 39.7667 -75.1167 79° East 323 372 10,800 1,320 Climbing Philadelphia TRACON
09:40PM 39.7883 -74.7989 85° East 375 432 13,500 1,380 Climbing New York Center
09:41PM 39.8300 -74.6769 66° East 375 432 15,700 2,100 Climbing New York Center
09:42PM 39.9183 -74.5925 36° Northeast 361 415 17,800 1,920 Climbing New York Center
09:43PM 39.9978 -74.5183 36° Northeast 370 426 19,600 2,040 Climbing New York Center
09:44PM 40.0989 -74.4153 38° Northeast 387 445 21,900 2,100 Climbing New York Center
09:45PM 40.1892 -74.3250 37° Northeast 402 463 23,800 2,100 Climbing New York Center
09:46PM 40.2853 -74.2483 31° Northeast 402 463 26,200 2,100 Climbing New York Center
09:47PM 40.3944 -74.2211 11° North 388 447 28,100 1,380 Climbing New York Center
09:48PM 40.5036 -74.1964 10° North 383 441 29,000 420 Climbing New York Center
09:49PM 40.6169 -74.1694 10° North 399 459 29,000  Level New York Center
09:51PM 40.8186 -74.1239 10° North 451 519 29,000  Level Boston Center
09:52PM 40.9358 -74.0914 12° North 446 513 29,000  Level Boston Center
09:53PM 41.0569 -74.0614 11° North 441 507 29,000  Level Boston Center
09:54PM 41.1783 -74.0314 11° North 436 502 29,000  Level Boston Center
09:55PM 41.2975 -74.0011 11° North 436 502 29,000  Level Boston Center
09:56PM 41.4147 -73.9708 11° North 431 496 29,000  Level Boston Center
09:57PM 41.5339 -73.9403 11° North 431 496 29,000  Level Boston Center
09:58PM 41.6300 -73.9150 11° North 431 496 29,000  Level Boston Center
09:59PM 41.7578 -73.8817 11° North 431 496 29,000  Level Boston Center
10:00PM 41.8789 -73.8567 North 431 496 29,000  Level Boston Center
10:01PM 42.0064 -73.8231 11° North 431 496 29,000  Level Boston Center
10:02PM 42.1256 -73.7922 11° North 431 496 29,000  Level Boston Center
10:03PM 42.2447 -73.7611 11° North 431 496 29,000  Level Boston Center
10:04PM 42.3639 -73.7269 12° North 431 496 29,000  Level Boston Center
10:05PM 42.4831 -73.6986 10° North 431 496 29,000  Level Boston Center
10:06PM 42.6064 -73.6672 11° North 431 496 29,000  Level Boston Center
10:07PM 42.7275 -73.6356 11° North 431 496 29,000  Level Boston Center
10:08PM 42.8467 -73.6011 12° North 431 496 29,000 -60 Level Boston Center
10:09PM 42.9639 -73.5692 11° North 425 489 28,900 -480 Descending Boston Center
10:10PM 43.0997 -73.5319 11° North 425 489 28,000 -960 Descending Boston Center
10:11PM 43.2083 -73.5056 10° North 430 495 27,100 -780 Descending Boston Center
10:12PM 43.3253 -73.4703 12° North 430 495 26,500 -600 Descending Boston Center
10:13PM 43.4422 -73.4408 10° North 430 495 26,000 -540 Descending Boston Center
10:14PM 43.5572 -73.4083 12° North 430 495 25,500 -1,200 Descending Boston Center
10:15PM 43.6719 -73.3786 11° North 430 495 23,700 -2,280 Descending Boston Center
10:16PM 43.7847 -73.3458 12° North 419 482 21,000 -3,000 Descending Boston Center
10:17PM 43.8892 -73.3186 11° North 393 452 17,800 -3,240 Descending Boston Center
10:18PM 43.9978 -73.2886 11° North 393 452 14,700 -3,000 Descending Boston Center
10:19PM 44.1000 -73.2583 12° North 381 438 11,800 -2,340 Descending Boston Center
10:20PM 44.1897 -73.2333 11° North 350 403 10,000 -2,040 Descending Boston Center
10:21PM 44.2508 -73.1561 42° Northeast 277 319 7,800 -2,280 Descending Boston Center
10:22PM 44.2950 -73.0897 47° Northeast 246 283 5,500 -2,040 Descending Boston Center
10:23PM 44.3347 -73.0381 43° Northeast 206 237 3,800 -1,500 Descending Boston Center
10:24PM 44.3786 -73.0383 360° North 163 188 2,500 -960 Descending Boston Center
10:25PM 44.4139 -73.0619 334° Northwest 142 163 2,000 -600 Descending Boston Center
10:26PM 44.4386 -73.1031 310° West 137 158 1,400 -720 Descending Boston Center
10:27PM 44.4633 -73.1381 315° West 137 158 600 -540 Descending Boston Center
10:28PM 44.4758 -73.1586 310° West 116 133 400 -120 Descending Boston Center
10:29PM 44.4717 -73.1586 180° South 64 74 400  Level Boston Center
10:30PM 44.4717 -73.1558 90° East 24 28 400  Level Boston Center
10:32PM 44.4667 -73.1500 10° North  Level FlightAware Approximate